Time;durP1;ratioP1;P1;durP2;ratioP2;P2;SDS_P1;SDS_P2;PMS_P1;PMS_P2;Temp;Humidity;BMP_temperature;BMP_pressure;BME280_temperature;BME280_humidity;BME280_pressure;Samples;Min_cycle;Max_cycle;Signal;HPM_P1;HPM_P2
2021/11/20 00:00:44;;;;;;;37.90;15.18;;;2.90;99.90;;;;;;6018394;23;20019;-79
2021/11/20 00:03:13;;;;;;;41.30;14.77;;;2.90;99.90;;;;;;6010705;23;20031;-80
2021/11/20 00:05:46;;;;;;;25.00;12.50;;;2.90;99.90;;;;;;6038328;23;20031;-80
2021/11/20 00:08:14;;;;;;;56.40;15.30;;;2.90;99.90;;;;;;6007902;23;20019;-80
2021/11/20 00:10:46;;;;;;;38.90;14.15;;;3.00;99.90;;;;;;6029183;23;20030;-80
2021/11/20 00:13:15;;;;;;;53.45;17.05;;;2.90;99.90;;;;;;6006552;23;20016;-80
2021/11/20 00:15:49;;;;;;;31.88;11.95;;;3.00;99.90;;;;;;6008622;23;20032;-80
2021/11/20 00:18:21;;;;;;;58.28;15.70;;;3.00;99.90;;;;;;6013825;23;20024;-80
2021/11/20 00:20:55;;;;;;;55.90;18.20;;;3.00;99.90;;;;;;6017649;23;20470;-80
2021/11/20 00:23:27;;;;;;;25.20;12.98;;;3.00;99.90;;;;;;6009583;23;20027;-80
2021/11/20 00:25:57;;;;;;;26.02;10.88;;;3.00;99.90;;;;;;6015879;23;20028;-80
2021/11/20 00:28:40;;;;;;;22.13;14.07;;;3.10;99.90;;;;;;6018567;23;20047;-80
2021/11/20 00:31:15;;;;;;;27.38;12.15;;;3.00;99.90;;;;;;6010296;23;20027;-80
2021/11/20 00:33:44;;;;;;;28.50;13.90;;;3.00;99.90;;;;;;5983375;23;20027;-80
2021/11/20 00:36:13;;;;;;;38.80;13.50;;;3.10;99.90;;;;;;6016311;23;20019;-80
2021/11/20 00:38:43;;;;;;;65.28;16.08;;;3.10;99.90;;;;;;6009547;23;20027;-80
2021/11/20 00:41:18;;;;;;;59.15;15.07;;;3.00;99.90;;;;;;6016890;23;20019;-80
2021/11/20 00:43:47;;;;;;;44.22;16.67;;;3.00;99.90;;;;;;5982212;23;20038;-80
2021/11/20 00:46:18;;;;;;;38.75;15.95;;;3.00;99.90;;;;;;6005877;23;20042;-80
2021/11/20 00:48:47;;;;;;;102.77;19.33;;;3.00;99.90;;;;;;6016497;23;20428;-80
2021/11/20 00:51:18;;;;;;;103.45;23.48;;;3.00;99.90;;;;;;6009699;23;20257;-80
2021/11/20 00:53:46;;;;;;;42.35;16.15;;;3.00;99.90;;;;;;6013236;23;20035;-80
2021/11/20 00:56:16;;;;;;;64.22;18.98;;;3.00;99.90;;;;;;6016459;23;20023;-80
2021/11/20 00:58:44;;;;;;;70.93;18.73;;;3.00;99.90;;;;;;6010554;23;20035;-80
2021/11/20 01:01:16;;;;;;;114.55;20.45;;;3.00;99.90;;;;;;6018091;23;20030;-80
2021/11/20 01:03:46;;;;;;;107.20;20.58;;;3.00;99.90;;;;;;6005801;23;20035;-80
2021/11/20 01:06:15;;;;;;;69.88;16.48;;;3.00;99.90;;;;;;6013509;23;20496;-80
2021/11/20 01:08:46;;;;;;;78.40;19.83;;;3.00;99.90;;;;;;6015484;23;20019;-80
2021/11/20 01:11:36;;;;;;;112.00;22.42;;;3.00;99.90;;;;;;6031460;23;20039;-80
2021/11/20 01:14:08;;;;;;;60.40;18.42;;;3.00;99.90;;;;;;6008322;23;20486;-80
2021/11/20 01:16:38;;;;;;;55.92;17.02;;;3.10;99.90;;;;;;6040090;23;20019;-80
2021/11/20 01:19:06;;;;;;;112.45;23.80;;;3.10;99.90;;;;;;6032200;23;20348;-80
2021/11/20 01:22:03;;;;;;;105.88;18.67;;;3.00;99.90;;;;;;5975218;23;20042;-80
2021/11/20 01:24:42;;;;;;;58.47;16.33;;;3.10;99.90;;;;;;6030545;23;20027;-80
2021/11/20 01:27:17;;;;;;;30.20;15.73;;;3.10;99.90;;;;;;6005708;23;20487;-80
2021/11/20 01:29:46;;;;;;;94.00;20.52;;;3.20;99.90;;;;;;6013583;23;20034;-80
2021/11/20 01:32:15;;;;;;;46.42;16.60;;;3.20;99.90;;;;;;6017999;23;20020;-80
2021/11/20 01:34:45;;;;;;;59.25;14.73;;;3.20;99.90;;;;;;6009911;23;20031;-80
2021/11/20 01:37:19;;;;;;;71.88;19.23;;;3.20;99.90;;;;;;6006875;23;20026;-80
2021/11/20 01:39:48;;;;;;;43.45;17.17;;;3.20;99.90;;;;;;6004401;23;20679;-80
2021/11/20 01:42:31;;;;;;;22.63;15.88;;;3.20;99.90;;;;;;6034788;23;20032;-80
2021/11/20 01:45:27;;;;;;;26.65;15.15;;;3.30;99.90;;;;;;6016452;23;20507;-80
2021/11/20 01:48:22;;;;;;;28.55;12.73;;;3.30;99.90;;;;;;5991365;23;20024;-80
2021/11/20 01:51:16;;;;;;;24.10;13.77;;;3.30;99.90;;;;;;6032660;23;20083;-80
2021/11/20 01:54:07;;;;;;;23.70;12.85;;;3.30;99.90;;;;;;6037190;23;20046;-80
2021/11/20 01:56:59;;;;;;;17.38;12.77;;;3.30;99.90;;;;;;6016150;23;20023;-80
2021/11/20 01:59:36;;;;;;;30.00;13.55;;;3.30;99.90;;;;;;6008737;23;20031;-80
2021/11/20 02:02:27;;;;;;;33.92;15.02;;;3.40;99.90;;;;;;6013015;23;20035;-80
2021/11/20 02:05:10;;;;;;;46.22;17.80;;;3.30;99.90;;;;;;6015855;23;20444;-80
2021/11/20 02:07:55;;;;;;;39.72;13.13;;;3.30;99.90;;;;;;6028704;23;20849;-80
2021/11/20 02:10:38;;;;;;;36.30;13.85;;;3.30;99.90;;;;;;6012878;23;20028;-80
2021/11/20 02:13:10;;;;;;;22.80;14.40;;;3.30;99.90;;;;;;6011955;23;20024;-80
2021/11/20 02:15:45;;;;;;;;;;;3.30;99.90;;;;;;6007305;23;20032;-80
2021/11/20 02:18:19;;;;;;;40.13;13.65;;;3.30;99.90;;;;;;6035377;23;19929;-80
2021/11/20 02:21:09;;;;;;;;;;;3.20;99.90;;;;;;6016156;23;20035;-80
2021/11/20 02:24:16;;;;;;;29.15;11.18;;;3.30;99.90;;;;;;5993666;23;19922;-80
2021/11/20 02:28:04;;;;;;;31.05;11.30;;;3.30;99.90;;;;;;5972854;23;20467;-80
2021/11/20 02:30:49;;;;;;;18.98;10.65;;;3.30;99.90;;;;;;5999827;23;20042;-80
2021/11/20 02:33:23;;;;;;;22.38;12.60;;;3.30;99.90;;;;;;6008009;23;20028;-80
2021/11/20 02:36:07;;;;;;;24.85;12.02;;;3.20;99.90;;;;;;6015563;23;20031;-80
2021/11/20 02:38:51;;;;;;;25.17;12.88;;;3.20;99.90;;;;;;6011832;23;20043;-80
2021/11/20 02:41:19;;;;;;;21.95;11.07;;;3.20;99.90;;;;;;6064619;23;20012;-80
2021/11/20 02:43:52;;;;;;;36.55;12.20;;;3.20;99.90;;;;;;6017790;23;20034;-80
2021/11/20 02:46:25;;;;;;;35.88;10.90;;;3.30;99.90;;;;;;6012807;23;20027;-80
2021/11/20 02:48:56;;;;;;;17.25;10.25;;;3.30;99.90;;;;;;6018272;23;20012;-80
2021/11/20 02:51:39;;;;;;;14.10;9.80;;;3.20;99.90;;;;;;6008614;23;20031;-80
2021/11/20 02:54:48;;;;;;;26.90;12.18;;;3.20;99.90;;;;;;5978907;23;20039;-81
2021/11/20 02:57:58;;;;;;;24.05;10.70;;;3.20;99.90;;;;;;5980575;23;20023;-80
2021/11/20 03:00:58;;;;;;;23.65;11.48;;;3.20;99.90;;;;;;6036833;23;20020;-80
2021/11/20 03:03:27;;;;;;;18.25;9.55;;;3.30;99.90;;;;;;5981816;23;20056;-80
2021/11/20 03:05:57;;;;;;;33.30;8.40;;;3.20;99.90;;;;;;6012570;23;20023;-80
2021/11/20 03:08:25;;;;;;;24.10;11.80;;;3.20;99.90;;;;;;6014544;23;20015;-80
2021/11/20 03:10:56;;;;;;;16.15;8.52;;;3.30;99.90;;;;;;6007749;23;20031;-80
2021/11/20 03:13:25;;;;;;;23.85;10.68;;;3.30;99.90;;;;;;6009423;23;20024;-80
2021/11/20 03:15:53;;;;;;;38.55;10.63;;;3.30;99.90;;;;;;5982780;23;20039;-80
2021/11/20 03:18:22;;;;;;;18.42;10.38;;;3.30;99.90;;;;;;6010625;23;20345;-80
2021/11/20 03:20:50;;;;;;;16.77;8.63;;;3.30;99.90;;;;;;6014216;23;20011;-81
2021/11/20 03:23:25;;;;;;;16.92;8.45;;;3.30;99.90;;;;;;6028758;23;20027;-80
2021/11/20 03:25:52;;;;;;;16.25;9.75;;;3.30;99.90;;;;;;5975116;23;20028;-80
2021/11/20 03:28:20;;;;;;;13.80;7.90;;;3.30;99.90;;;;;;5988810;24;20023;-80
2021/11/20 03:30:50;;;;;;;17.10;7.57;;;3.30;99.90;;;;;;6003169;23;20201;-80
2021/11/20 03:33:19;;;;;;;12.27;7.10;;;3.30;99.90;;;;;;6009396;23;20024;-80
2021/11/20 03:35:48;;;;;;;16.42;9.23;;;3.30;99.90;;;;;;5988063;24;20337;-80
2021/11/20 03:38:23;;;;;;;20.42;10.40;;;3.30;99.90;;;;;;5994244;23;20459;-80
2021/11/20 03:40:51;;;;;;;17.20;9.88;;;3.30;99.90;;;;;;6014079;23;20036;-80
2021/11/20 03:43:20;;;;;;;15.80;8.45;;;3.30;99.90;;;;;;6007143;23;20030;-80
2021/11/20 03:45:50;;;;;;;13.65;9.52;;;3.40;99.90;;;;;;6012145;23;20470;-80
2021/11/20 03:48:19;;;;;;;15.75;9.52;;;3.40;99.90;;;;;;6015272;23;20023;-80
2021/11/20 03:50:48;;;;;;;15.60;7.95;;;3.40;99.90;;;;;;5980700;23;20413;-80
2021/11/20 03:53:17;;;;;;;18.38;8.05;;;3.50;99.90;;;;;;5980730;23;20020;-80
2021/11/20 03:55:47;;;;;;;18.77;8.70;;;3.50;99.90;;;;;;6004987;23;20031;-80
2021/11/20 03:58:18;;;;;;;14.43;8.57;;;3.40;99.90;;;;;;5982009;23;20348;-80
2021/11/20 04:00:54;;;;;;;17.63;8.05;;;3.40;99.90;;;;;;6014170;23;20024;-80
2021/11/20 04:03:24;;;;;;;15.48;10.27;;;3.30;99.90;;;;;;6005787;23;20038;-80
2021/11/20 04:05:55;;;;;;;17.15;9.43;;;3.40;99.90;;;;;;6013529;23;20552;-80
2021/11/20 04:08:26;;;;;;;20.77;10.23;;;3.30;99.90;;;;;;6013040;23;20016;-80
2021/11/20 04:11:15;;;;;;;16.52;8.70;;;3.30;99.90;;;;;;6006130;23;20019;-80
2021/11/20 04:13:43;;;;;;;16.52;6.55;;;3.40;99.90;;;;;;6008638;23;20032;-80
2021/11/20 04:16:14;;;;;;;13.93;7.38;;;3.40;99.90;;;;;;6037749;23;20039;-80
2021/11/20 04:18:45;;;;;;;19.05;6.95;;;3.30;99.90;;;;;;6008407;23;20028;-80
2021/11/20 04:21:14;;;;;;;8.85;6.40;;;3.30;99.90;;;;;;6013843;23;20360;-80
2021/11/20 04:23:45;;;;;;;13.60;8.90;;;3.30;99.90;;;;;;6026668;23;20047;-80
2021/11/20 04:26:18;;;;;;;10.85;6.60;;;3.30;99.90;;;;;;6010622;23;20039;-80
2021/11/20 04:28:47;;;;;;;19.27;7.82;;;3.30;99.90;;;;;;6039095;23;20031;-80
2021/11/20 04:31:22;;;;;;;14.00;8.35;;;3.20;99.90;;;;;;6007106;23;20035;-80
2021/11/20 04:33:51;;;;;;;14.43;9.13;;;3.30;99.90;;;;;;6015821;23;20349;-80
2021/11/20 04:36:20;;;;;;;12.50;8.18;;;3.20;99.90;;;;;;6016795;23;20028;-80
2021/11/20 04:38:48;;;;;;;29.70;8.75;;;3.30;99.90;;;;;;6008043;23;20337;-80
2021/11/20 04:41:17;;;;;;;10.02;7.05;;;3.20;99.90;;;;;;6061341;23;20038;-81
2021/11/20 04:43:48;;;;;;;14.95;7.28;;;3.30;99.90;;;;;;5980675;23;20036;-80
2021/11/20 04:46:20;;;;;;;12.82;7.15;;;3.30;99.90;;;;;;6004743;23;20035;-80
2021/11/20 04:48:49;;;;;;;14.73;10.23;;;3.20;99.90;;;;;;6037743;23;20078;-80
2021/11/20 04:51:17;;;;;;;18.40;10.13;;;3.20;99.90;;;;;;5983592;23;20028;-80
2021/11/20 04:53:47;;;;;;;16.35;9.95;;;3.30;99.90;;;;;;5985582;24;20043;-80
2021/11/20 04:56:17;;;;;;;11.57;7.45;;;3.30;99.90;;;;;;5988380;24;20036;-80
2021/11/20 04:58:46;;;;;;;8.93;7.57;;;3.40;99.90;;;;;;5978686;23;20490;-80
2021/11/20 05:01:18;;;;;;;20.55;8.35;;;3.40;99.90;;;;;;5955333;24;20020;-80
2021/11/20 05:03:49;;;;;;;13.73;5.10;;;3.20;99.90;;;;;;6001277;23;20024;-80
2021/11/20 05:06:20;;;;;;;12.13;8.85;;;3.30;99.90;;;;;;5983946;23;20081;-80
2021/11/20 05:08:48;;;;;;;13.80;7.17;;;3.30;99.90;;;;;;6010844;23;20020;-80
2021/11/20 05:11:16;;;;;;;11.07;8.05;;;3.30;99.90;;;;;;5981806;23;20031;-80
2021/11/20 05:13:47;;;;;;;11.73;5.82;;;3.30;99.90;;;;;;6006667;23;20023;-80
2021/11/20 05:16:16;;;;;;;13.00;7.93;;;3.30;99.90;;;;;;6040159;23;20016;-80
2021/11/20 05:18:46;;;;;;;13.63;8.43;;;3.30;99.90;;;;;;6006987;23;20347;-80
2021/11/20 05:21:19;;;;;;;10.10;6.50;;;3.30;99.90;;;;;;6016936;23;20030;-80
2021/11/20 05:23:49;;;;;;;14.70;9.60;;;3.30;99.90;;;;;;6024367;23;20369;-80
2021/11/20 05:26:18;;;;;;;14.65;7.18;;;3.30;99.90;;;;;;5985504;23;20039;-80
2021/11/20 05:29:07;;;;;;;9.23;7.03;;;3.30;99.90;;;;;;5988158;24;20022;-80
2021/11/20 05:31:47;;;;;;;10.15;6.47;;;3.30;99.90;;;;;;6029378;23;20035;-80
2021/11/20 05:34:15;;;;;;;33.67;10.45;;;3.30;99.90;;;;;;6036089;23;20024;-80
2021/11/20 05:36:43;;;;;;;20.55;9.57;;;3.30;99.90;;;;;;6016944;23;20016;-80
2021/11/20 05:39:14;;;;;;;16.05;7.60;;;3.30;99.90;;;;;;6031324;23;20027;-80
2021/11/20 05:41:44;;;;;;;25.85;11.20;;;3.30;99.90;;;;;;6037708;23;20015;-80
2021/11/20 05:44:13;;;;;;;14.00;8.80;;;3.30;99.90;;;;;;6016596;23;20012;-80
2021/11/20 05:46:52;;;;;;;32.38;10.82;;;3.40;99.90;;;;;;6006633;23;20027;-80
2021/11/20 05:49:20;;;;;;;22.58;9.13;;;3.40;99.90;;;;;;6017303;23;20012;-80
2021/11/20 05:51:48;;;;;;;12.77;9.02;;;3.40;99.90;;;;;;6062819;23;20035;-80
2021/11/20 05:54:16;;;;;;;23.40;9.95;;;3.30;99.90;;;;;;6058866;23;20035;-80
2021/11/20 05:56:48;;;;;;;19.48;11.18;;;3.40;99.90;;;;;;6016257;23;20019;-80
2021/11/20 05:59:25;;;;;;;33.15;8.27;;;3.30;99.90;;;;;;6032079;23;20030;-80
2021/11/20 06:01:54;;;;;;;14.50;8.95;;;3.30;99.90;;;;;;6008038;23;20031;-80
2021/11/20 06:04:26;;;;;;;17.02;7.93;;;3.20;99.90;;;;;;6041268;23;20020;-80
2021/11/20 06:06:54;;;;;;;17.80;9.77;;;3.30;99.90;;;;;;6012946;23;20716;-80
2021/11/20 06:09:22;;;;;;;13.68;8.02;;;3.20;99.90;;;;;;6040183;23;20019;-80
2021/11/20 06:11:50;;;;;;;21.42;9.43;;;3.30;99.90;;;;;;6041542;23;20337;-80
2021/11/20 06:14:18;;;;;;;15.38;11.65;;;3.30;99.90;;;;;;6009552;23;20031;-79
2021/11/20 06:16:46;;;;;;;13.23;7.53;;;3.20;99.90;;;;;;6017694;23;20012;-80
2021/11/20 06:19:15;;;;;;;67.03;12.05;;;3.20;99.90;;;;;;6033479;23;20058;-80
2021/11/20 06:21:43;;;;;;;79.88;8.52;;;3.20;99.90;;;;;;6017270;23;20028;-80
2021/11/20 06:24:14;;;;;;;39.38;8.48;;;3.10;99.90;;;;;;6041276;23;20012;-80
2021/11/20 06:26:44;;;;;;;31.75;8.25;;;3.00;99.90;;;;;;6012026;23;20032;-80
2021/11/20 06:29:11;;;;;;;71.85;9.23;;;3.10;99.90;;;;;;6041946;23;20019;-80
2021/11/20 06:31:47;;;;;;;21.23;10.57;;;3.00;99.90;;;;;;6031865;23;20028;-80
2021/11/20 06:34:33;;;;;;;50.15;11.38;;;3.00;99.90;;;;;;6014241;23;20027;-80
2021/11/20 06:37:21;;;;;;;34.95;10.57;;;3.00;99.90;;;;;;6009268;23;20016;-80
2021/11/20 06:40:13;;;;;;;65.28;10.65;;;3.00;99.90;;;;;;6041155;23;20027;-80
2021/11/20 06:42:41;;;;;;;28.13;7.97;;;3.00;99.90;;;;;;6031655;23;20031;-79
2021/11/20 06:45:13;;;;;;;32.22;11.43;;;2.90;99.90;;;;;;6041459;23;20015;-80
2021/11/20 06:47:41;;;;;;;28.10;8.70;;;3.00;99.90;;;;;;6007440;23;20024;-80
2021/11/20 06:50:10;;;;;;;11.27;5.65;;;2.90;99.90;;;;;;6031192;23;20019;-80
2021/11/20 06:52:56;;;;;;;46.42;6.72;;;2.90;99.90;;;;;;6018336;23;20026;-80
2021/11/20 06:55:50;;;;;;;29.88;9.23;;;2.90;99.90;;;;;;5994138;23;20020;-80
2021/11/20 07:01:23;;;;;;;22.58;7.78;;;3.00;99.90;;;;;;5956719;23;20021;-80
2021/11/20 07:04:03;;;;;;;5.80;5.20;;;3.10;99.90;;;;;;6013414;23;20016;-81
2021/11/20 07:06:46;;;;;;;24.27;9.60;;;3.10;99.90;;;;;;6007830;23;20049;-81
2021/11/20 07:09:15;;;;;;;19.00;6.40;;;3.10;99.90;;;;;;5990263;24;20019;-81
2021/11/20 07:11:44;;;;;;;11.27;6.90;;;3.00;99.90;;;;;;5979633;23;20035;-81
2021/11/20 07:14:14;;;;;;;8.23;6.68;;;3.10;99.90;;;;;;6037558;23;20360;-81
2021/11/20 07:16:43;;;;;;;20.45;6.88;;;3.10;99.90;;;;;;6015734;23;20011;-81
2021/11/20 07:19:13;;;;;;;21.92;7.03;;;3.10;99.90;;;;;;6004725;23;20024;-81
2021/11/20 07:22:03;;;;;;;19.67;9.65;;;3.10;99.90;;;;;;6005717;23;20023;-81
2021/11/20 07:25:01;;;;;;;8.07;6.88;;;3.10;99.90;;;;;;5996365;23;20020;-81
2021/11/20 07:27:29;;;;;;;76.03;8.52;;;3.00;99.90;;;;;;6029819;23;20028;-81
2021/11/20 07:29:57;;;;;;;4.50;2.65;;;3.00;99.90;;;;;;6030504;23;20039;-81
2021/11/20 07:32:28;;;;;;;14.20;6.73;;;3.20;99.90;;;;;;6009804;23;20023;-81
2021/11/20 07:34:56;;;;;;;19.17;7.05;;;3.00;99.90;;;;;;5982087;23;20032;-81
2021/11/20 07:37:24;;;;;;;52.10;13.90;;;3.00;99.90;;;;;;5987317;23;20012;-81
2021/11/20 07:39:53;;;;;;;29.05;6.32;;;3.00;99.90;;;;;;6013498;23;20015;-81
2021/11/20 07:42:22;;;;;;;11.30;4.72;;;3.00;99.90;;;;;;6009981;23;20409;-81
2021/11/20 07:45:26;;;;;;;41.28;7.20;;;2.90;99.90;;;;;;5948174;24;20020;-81
2021/11/20 07:48:24;;;;;;;27.13;6.60;;;2.90;99.90;;;;;;5983198;23;20475;-81
2021/11/20 07:50:55;;;;;;;44.40;5.40;;;2.90;99.90;;;;;;6009319;23;20023;-81
2021/11/20 07:53:42;;;;;;;43.55;8.75;;;2.80;99.90;;;;;;6014332;23;20024;-81
2021/11/20 07:56:14;;;;;;;46.67;11.80;;;2.70;99.90;;;;;;6017495;23;20012;-81
2021/11/20 07:58:43;;;;;;;13.95;7.95;;;2.90;99.90;;;;;;5983959;23;20364;-81
2021/11/20 08:01:12;;;;;;;71.75;11.85;;;2.80;99.90;;;;;;6018553;23;20015;-81
2021/11/20 08:03:43;;;;;;;34.13;9.77;;;2.90;99.90;;;;;;6007170;23;20035;-81
2021/11/20 08:06:38;;;;;;;40.10;8.48;;;3.00;99.90;;;;;;5998290;23;20392;-81
2021/11/20 08:09:26;;;;;;;14.90;9.18;;;3.00;99.90;;;;;;6034524;23;20019;-81
2021/11/20 08:11:57;;;;;;;29.50;11.23;;;3.10;99.90;;;;;;6018379;23;20020;-81
2021/11/20 08:14:46;;;;;;;44.72;11.10;;;3.00;99.90;;;;;;5980541;23;20468;-81
2021/11/20 08:17:40;;;;;;;17.92;8.45;;;3.10;99.90;;;;;;5946432;23;20016;-81
2021/11/20 08:20:29;;;;;;;16.58;8.27;;;3.20;99.90;;;;;;5956013;24;20027;-81
2021/11/20 08:23:25;;;;;;;15.25;7.20;;;3.30;99.90;;;;;;6000337;23;20032;-81
2021/11/20 08:25:57;;;;;;;16.27;9.43;;;3.20;99.90;;;;;;5986169;23;20035;-81
2021/11/20 08:28:26;;;;;;;44.65;23.42;;;3.30;99.90;;;;;;5988992;24;20020;-81
2021/11/20 08:30:54;;;;;;;40.08;18.95;;;3.30;99.90;;;;;;6005321;23;20024;-81
2021/11/20 08:33:22;;;;;;;31.70;16.92;;;3.40;99.90;;;;;;5986663;23;20016;-81
2021/11/20 08:36:09;;;;;;;35.90;20.17;;;3.40;99.90;;;;;;5986286;24;20016;-81
2021/11/20 08:39:02;;;;;;;15.95;11.05;;;3.50;99.90;;;;;;5975650;23;20024;-81
2021/11/20 08:41:31;;;;;;;25.85;15.82;;;3.50;99.90;;;;;;5987099;23;20027;-80
2021/11/20 08:43:59;;;;;;;11.43;9.20;;;3.60;99.90;;;;;;5955964;24;20028;-81
2021/11/20 08:46:43;;;;;;;28.23;11.00;;;3.60;99.90;;;;;;6029341;23;20352;-80
2021/11/20 08:49:13;;;;;;;14.38;11.35;;;3.70;99.90;;;;;;6035799;23;20016;-82
2021/11/20 08:51:42;;;;;;;10.07;6.90;;;3.80;99.90;;;;;;5954669;24;20032;-81
2021/11/20 08:54:10;;;;;;;7.40;6.55;;;3.70;99.90;;;;;;5954190;24;20028;-81
2021/11/20 08:56:42;;;;;;;11.98;7.60;;;3.70;99.90;;;;;;5988729;24;20019;-82
2021/11/20 08:59:20;;;;;;;11.73;8.25;;;3.90;99.90;;;;;;5980489;24;20364;-83
2021/11/20 09:02:21;;;;;;;8.68;7.13;;;3.90;99.90;;;;;;5984762;23;20039;-83
2021/11/20 09:05:19;;;;;;;8.57;7.25;;;4.00;99.90;;;;;;5988540;24;20016;-80
2021/11/20 09:07:53;;;;;;;8.85;7.95;;;4.00;99.90;;;;;;5976952;24;20036;-79
2021/11/20 09:10:36;;;;;;;10.38;6.43;;;4.00;99.90;;;;;;5982623;23;20076;-80
2021/11/20 09:13:18;;;;;;;11.30;7.70;;;4.10;99.90;;;;;;5983580;23;20012;-80
2021/11/20 09:15:52;;;;;;;10.35;7.55;;;4.10;99.90;;;;;;6023306;23;20480;-80
2021/11/20 09:18:24;;;;;;;9.27;7.75;;;4.10;99.90;;;;;;6003286;23;20032;-80
2021/11/20 09:20:54;;;;;;;15.55;8.95;;;4.20;99.90;;;;;;5953681;24;20020;-80
2021/11/20 09:23:53;;;;;;;25.60;16.90;;;4.10;99.90;;;;;;5854187;23;20034;-80
2021/11/20 09:26:34;;;;;;;4.30;3.03;;;4.10;99.90;;;;;;5981114;23;20486;-80
2021/11/20 09:29:06;;;;;;;15.20;12.20;;;4.20;99.90;;;;;;6010020;23;20249;-80
2021/11/20 09:31:36;;;;;;;;;;;4.00;99.90;;;;;;5977200;23;20050;-80
2021/11/20 09:34:06;;;;;;;9.25;6.13;;;4.10;99.90;;;;;;5982044;23;20327;-80
2021/11/20 09:36:34;;;;;;;8.27;7.50;;;4.10;99.90;;;;;;6009733;23;20440;-80
2021/11/20 09:39:26;;;;;;;11.57;8.77;;;4.20;99.90;;;;;;5966228;23;20039;-80
2021/11/20 09:42:03;;;;;;;7.72;6.38;;;4.20;99.90;;;;;;5983256;23;20484;-80
2021/11/20 09:44:43;;;;;;;9.25;6.65;;;4.20;99.90;;;;;;6009980;23;20024;-81
2021/11/20 09:47:34;;;;;;;7.63;6.88;;;4.30;99.90;;;;;;5976155;23;20091;-80
2021/11/20 09:50:13;;;;;;;8.50;5.65;;;4.40;99.90;;;;;;6005994;23;20032;-80
2021/11/20 09:52:46;;;;;;;9.02;8.02;;;4.50;99.90;;;;;;6007943;23;20020;-80
2021/11/20 09:55:23;;;;;;;7.85;5.82;;;4.60;99.90;;;;;;6000157;23;20032;-80
2021/11/20 09:57:57;;;;;;;7.25;6.45;;;4.70;99.90;;;;;;5978839;23;20036;-80
2021/11/20 10:00:36;;;;;;;6.68;4.97;;;4.70;99.90;;;;;;5958194;24;20019;-80
2021/11/20 10:03:08;;;;;;;8.30;6.47;;;4.70;99.90;;;;;;5972698;23;20036;-81
2021/11/20 10:05:42;;;;;;;10.27;9.20;;;4.70;99.90;;;;;;5986087;23;20020;-81
2021/11/20 10:08:14;;;;;;;6.40;5.75;;;4.80;99.90;;;;;;5985770;24;20020;-80
2021/11/20 10:10:46;;;;;;;7.72;6.28;;;4.90;99.90;;;;;;5979975;23;20036;-80
2021/11/20 10:13:19;;;;;;;8.23;6.38;;;4.90;99.90;;;;;;6006661;23;20035;-80
2021/11/20 10:15:58;;;;;;;9.00;8.20;;;5.00;99.90;;;;;;6034041;23;20019;-80
2021/11/20 10:18:33;;;;;;;8.80;7.38;;;5.00;99.90;;;;;;6039184;23;20028;-80
2021/11/20 10:21:16;;;;;;;8.90;6.95;;;4.90;99.90;;;;;;6009166;23;20026;-80
2021/11/20 10:23:50;;;;;;;7.18;4.82;;;4.90;99.90;;;;;;6006326;23;20563;-80
2021/11/20 10:26:47;;;;;;;7.13;6.18;;;5.10;99.90;;;;;;5996882;23;20027;-80
2021/11/20 10:29:20;;;;;;;6.30;5.65;;;5.10;99.90;;;;;;5955732;23;20025;-80
2021/11/20 10:31:51;;;;;;;10.77;8.60;;;5.10;99.90;;;;;;6004852;23;20031;-80
2021/11/20 10:34:27;;;;;;;6.25;5.53;;;5.20;99.90;;;;;;6022681;23;20042;-80
2021/11/20 10:37:09;;;;;;;12.85;6.93;;;5.20;99.90;;;;;;6044523;23;20340;-80
2021/11/20 10:39:37;;;;;;;6.80;5.28;;;5.20;99.90;;;;;;6033189;23;20028;-80
2021/11/20 10:42:24;;;;;;;6.30;5.20;;;5.30;99.90;;;;;;6008503;23;20027;-80
2021/11/20 10:45:09;;;;;;;7.68;5.90;;;5.30;99.90;;;;;;6033584;23;20023;-80
2021/11/20 10:47:55;;;;;;;7.55;5.90;;;5.40;99.90;;;;;;6035715;23;20028;-80
2021/11/20 10:50:32;;;;;;;8.50;6.35;;;5.40;99.90;;;;;;6039743;23;20035;-80
2021/11/20 10:53:27;;;;;;;8.10;5.72;;;5.60;99.90;;;;;;6044189;23;20066;-80
2021/11/20 10:56:07;;;;;;;10.80;7.15;;;5.60;99.90;;;;;;6066546;23;20031;-80
2021/11/20 10:58:50;;;;;;;7.65;6.93;;;5.60;99.90;;;;;;6040708;23;20030;-80
2021/11/20 11:01:47;;;;;;;7.28;5.40;;;5.50;99.90;;;;;;6067791;23;20011;-80
2021/11/20 11:04:45;;;;;;;5.85;5.13;;;5.50;99.90;;;;;;6042218;23;20027;-80
2021/11/20 11:07:30;;;;;;;6.95;4.63;;;5.60;99.90;;;;;;5987455;23;20031;-80
2021/11/20 11:10:06;;;;;;;6.40;5.13;;;5.70;99.90;;;;;;6042123;23;20042;-80
2021/11/20 11:12:56;;;;;;;6.18;5.10;;;5.80;99.90;;;;;;6066714;23;20439;-80
2021/11/20 11:15:54;;;;;;;8.73;5.30;;;5.80;99.90;;;;;;6035804;23;20434;-80
2021/11/20 11:18:44;;;;;;;4.85;3.92;;;5.80;99.90;;;;;;6033868;23;20050;-80
2021/11/20 11:21:28;;;;;;;4.05;3.67;;;6.00;99.90;;;;;;6044891;23;20022;-81
2021/11/20 11:24:27;;;;;;;3.05;2.78;;;5.90;99.90;;;;;;6040337;23;20027;-80
2021/11/20 11:27:01;;;;;;;2.90;2.58;;;5.90;99.90;;;;;;6010538;23;20050;-80
2021/11/20 11:30:08;;;;;;;5.43;2.97;;;6.00;99.90;;;;;;6044540;23;20022;-80
2021/11/20 11:32:41;;;;;;;4.78;3.50;;;6.10;99.90;;;;;;6020197;23;20015;-80
2021/11/20 11:35:38;;;;;;;3.13;2.72;;;6.20;99.90;;;;;;6036276;23;20038;-80
2021/11/20 11:38:19;;;;;;;2.58;2.28;;;6.30;99.90;;;;;;6040423;23;20459;-80
2021/11/20 11:41:09;;;;;;;3.00;2.65;;;6.20;99.90;;;;;;6067735;23;20026;-80
2021/11/20 11:44:12;;;;;;;1.88;1.73;;;6.20;99.90;;;;;;6036020;23;20020;-80
2021/11/20 11:46:52;;;;;;;2.25;2.05;;;6.20;99.90;;;;;;6010484;23;20031;-80
2021/11/20 11:49:50;;;;;;;2.90;1.77;;;6.20;99.90;;;;;;6045338;23;20018;-80
2021/11/20 11:52:42;;;;;;;1.80;1.67;;;6.30;99.90;;;;;;6010918;23;20784;-84
2021/11/20 11:55:29;;;;;;;1.95;1.42;;;6.30;99.90;;;;;;6033723;23;20034;-84
2021/11/20 11:58:08;;;;;;;2.42;2.22;;;6.20;99.90;;;;;;6009093;23;20019;-83
2021/11/20 12:00:44;;;;;;;2.65;2.45;;;6.10;99.90;;;;;;6018598;23;20042;-80
2021/11/20 12:03:28;;;;;;;3.20;2.90;;;6.10;99.90;;;;;;6037158;23;20027;-80
2021/11/20 12:06:23;;;;;;;3.30;2.70;;;6.20;99.90;;;;;;6017366;23;20027;-80
2021/11/20 12:09:02;;;;;;;3.97;2.42;;;6.10;99.90;;;;;;6041740;23;20015;-80
2021/11/20 12:11:37;;;;;;;3.60;3.28;;;6.10;99.90;;;;;;6035973;23;20026;-80
2021/11/20 12:14:13;;;;;;;4.10;2.72;;;6.10;99.90;;;;;;6037684;23;20031;-80
2021/11/20 12:16:56;;;;;;;3.17;2.90;;;6.20;99.90;;;;;;6045349;23;20030;-80
2021/11/20 12:19:51;;;;;;;2.35;2.25;;;6.30;99.90;;;;;;6010983;23;20031;-80
2021/11/20 12:22:44;;;;;;;3.55;2.80;;;6.30;99.90;;;;;;6040684;23;20471;-80
2021/11/20 12:25:12;;;;;;;3.47;2.70;;;6.30;99.90;;;;;;6045765;23;20019;-80
2021/11/20 12:27:48;;;;;;;2.70;2.50;;;6.30;99.90;;;;;;6035554;23;20340;-80
2021/11/20 12:31:06;;;;;;;4.70;3.30;;;6.20;99.90;;;;;;6040315;23;20483;-80
2021/11/20 12:33:47;;;;;;;3.17;2.60;;;6.10;99.90;;;;;;6003548;23;20526;-80
2021/11/20 12:36:36;;;;;;;3.63;3.13;;;6.00;99.90;;;;;;6013291;23;20019;-80
2021/11/20 12:39:22;;;;;;;4.20;3.80;;;6.10;99.90;;;;;;6027269;23;20023;-80
2021/11/20 12:42:10;;;;;;;6.88;3.15;;;6.10;99.90;;;;;;6042215;23;20034;-80
2021/11/20 12:44:43;;;;;;;3.30;3.00;;;6.00;99.90;;;;;;6045476;23;20341;-80
2021/11/20 12:47:37;;;;;;;3.92;2.15;;;5.80;99.90;;;;;;6037233;23;20023;-80
2021/11/20 12:50:08;;;;;;;3.42;2.83;;;5.90;99.90;;;;;;6030602;23;20038;-80
2021/11/20 12:52:51;;;;;;;3.38;3.00;;;5.90;99.90;;;;;;6043300;23;20023;-80
2021/11/20 12:55:19;;;;;;;3.00;2.70;;;6.00;99.90;;;;;;6036896;23;20031;-80
2021/11/20 12:57:54;;;;;;;4.32;3.58;;;6.10;99.90;;;;;;6042601;23;20034;-80
2021/11/20 13:00:25;;;;;;;2.60;2.40;;;6.00;99.90;;;;;;6044495;23;20435;-80
2021/11/20 13:03:25;;;;;;;4.88;3.40;;;6.00;99.90;;;;;;6037798;23;20618;-80
2021/11/20 13:06:02;;;;;;;2.95;2.38;;;6.00;99.90;;;;;;6034038;23;20031;-80
2021/11/20 13:08:37;;;;;;;3.50;3.15;;;6.00;99.90;;;;;;6041149;23;20019;-80
2021/11/20 13:11:18;;;;;;;3.05;2.80;;;6.00;99.90;;;;;;6036551;23;20027;-80
2021/11/20 13:14:24;;;;;;;2.67;2.45;;;6.10;99.90;;;;;;6038315;23;20031;-80
2021/11/20 13:17:01;;;;;;;3.38;2.90;;;6.10;99.90;;;;;;6045129;23;20027;-80
2021/11/20 13:19:54;;;;;;;3.80;3.15;;;6.00;99.90;;;;;;6033698;23;20291;-80
2021/11/20 13:22:33;;;;;;;3.83;3.13;;;5.90;99.90;;;;;;6040431;23;20026;-80
2021/11/20 13:25:21;;;;;;;3.42;2.38;;;6.00;99.90;;;;;;6057497;23;20030;-80
2021/11/20 13:27:58;;;;;;;3.22;3.03;;;6.00;99.90;;;;;;6034588;23;20023;-80
2021/11/20 13:30:31;;;;;;;3.85;3.38;;;6.00;99.90;;;;;;6039696;23;20035;-79
2021/11/20 13:33:02;;;;;;;3.40;2.65;;;6.00;99.90;;;;;;6038721;23;20020;-80
2021/11/20 13:35:43;;;;;;;3.20;2.47;;;5.90;99.90;;;;;;6009439;23;20036;-80
2021/11/20 13:38:14;;;;;;;3.50;2.55;;;5.90;99.90;;;;;;6039088;23;20349;-80
2021/11/20 13:40:47;;;;;;;5.03;3.55;;;5.90;99.90;;;;;;6019034;23;20019;-80
2021/11/20 13:43:19;;;;;;;3.70;3.40;;;5.90;99.90;;;;;;6037056;23;20023;-80